sensor_id;sensor_type;location;lat;lon;timestamp;P1;durP1;ratioP1;P2;durP2;ratioP2
39016;SDS011;24784;45.582;5.276;2022-12-08T07:20:32;90.18;;;36.60;;
39016;SDS011;24784;45.582;5.276;2022-12-08T07:31:35;92.85;;;35.05;;
39016;SDS011;24784;45.582;5.276;2022-12-08T07:34:01;91.75;;;37.35;;
39016;SDS011;24784;45.582;5.276;2022-12-08T07:36:30;84.53;;;36.55;;
39016;SDS011;24784;45.582;5.276;2022-12-08T07:39:04;94.07;;;37.78;;
39016;SDS011;24784;45.582;5.276;2022-12-08T07:41:36;88.47;;;36.08;;
39016;SDS011;24784;45.582;5.276;2022-12-08T07:49:22;85.05;;;36.67;;
39016;SDS011;24784;45.582;5.276;2022-12-08T07:51:59;91.13;;;38.63;;
39016;SDS011;24784;45.582;5.276;2022-12-08T07:54:38;83.57;;;36.03;;
39016;SDS011;24784;45.582;5.276;2022-12-08T07:57:13;92.43;;;36.35;;
39016;SDS011;24784;45.582;5.276;2022-12-08T07:59:53;90.17;;;36.13;;
39016;SDS011;24784;45.582;5.276;2022-12-08T08:02:30;89.70;;;37.10;;
39016;SDS011;24784;45.582;5.276;2022-12-08T08:04:59;91.55;;;37.70;;
39016;SDS011;24784;45.582;5.276;2022-12-08T08:13:29;87.97;;;35.28;;
39016;SDS011;24784;45.582;5.276;2022-12-08T08:16:15;87.82;;;37.00;;
39016;SDS011;24784;45.582;5.276;2022-12-08T08:24:15;86.22;;;37.28;;
39016;SDS011;24784;45.582;5.276;2022-12-08T08:26:46;88.25;;;36.08;;
39016;SDS011;24784;45.582;5.276;2022-12-08T08:29:12;100.57;;;39.65;;
39016;SDS011;24784;45.582;5.276;2022-12-08T08:39:44;81.57;;;36.35;;
39016;SDS011;24784;45.582;5.276;2022-12-08T08:42:25;84.70;;;36.67;;
39016;SDS011;24784;45.582;5.276;2022-12-08T08:44:57;80.22;;;34.70;;
39016;SDS011;24784;45.582;5.276;2022-12-08T08:47:34;81.88;;;35.28;;
39016;SDS011;24784;45.582;5.276;2022-12-08T08:58:15;64.50;;;32.53;;
39016;SDS011;24784;45.582;5.276;2022-12-08T09:00:42;83.63;;;32.63;;
39016;SDS011;24784;45.582;5.276;2022-12-08T09:03:10;73.78;;;32.28;;
39016;SDS011;24784;45.582;5.276;2022-12-08T09:05:44;76.60;;;33.45;;
39016;SDS011;24784;45.582;5.276;2022-12-08T09:08:12;68.47;;;32.55;;
39016;SDS011;24784;45.582;5.276;2022-12-08T09:10:41;66.90;;;31.63;;
39016;SDS011;24784;45.582;5.276;2022-12-08T09:13:09;71.18;;;32.45;;
39016;SDS011;24784;45.582;5.276;2022-12-08T09:15:41;76.63;;;33.80;;
39016;SDS011;24784;45.582;5.276;2022-12-08T09:18:07;68.32;;;32.22;;
39016;SDS011;24784;45.582;5.276;2022-12-08T09:20:33;77.68;;;34.50;;
39016;SDS011;24784;45.582;5.276;2022-12-08T09:22:59;72.90;;;34.28;;
39016;SDS011;24784;45.582;5.276;2022-12-08T09:25:28;68.45;;;31.58;;
39016;SDS011;24784;45.582;5.276;2022-12-08T09:30:27;74.25;;;31.05;;
39016;SDS011;24784;45.582;5.276;2022-12-08T09:32:55;61.22;;;29.20;;
39016;SDS011;24784;45.582;5.276;2022-12-08T09:35:32;65.45;;;30.42;;
39016;SDS011;24784;45.582;5.276;2022-12-08T09:38:05;71.88;;;31.63;;
39016;SDS011;24784;45.582;5.276;2022-12-08T09:40:36;68.97;;;30.38;;
39016;SDS011;24784;45.582;5.276;2022-12-08T09:46:18;61.30;;;29.80;;
39016;SDS011;24784;45.582;5.276;2022-12-08T09:48:52;63.00;;;30.40;;
39016;SDS011;24784;45.582;5.276;2022-12-08T09:51:29;64.28;;;30.50;;
39016;SDS011;24784;45.582;5.276;2022-12-08T09:54:17;61.72;;;30.30;;
39016;SDS011;24784;45.582;5.276;2022-12-08T09:57:22;71.88;;;32.05;;
39016;SDS011;24784;45.582;5.276;2022-12-08T10:00:05;68.07;;;30.90;;
39016;SDS011;24784;45.582;5.276;2022-12-08T10:02:59;64.00;;;31.10;;
39016;SDS011;24784;45.582;5.276;2022-12-08T10:05:28;62.03;;;30.15;;
39016;SDS011;24784;45.582;5.276;2022-12-08T10:08:14;71.22;;;31.67;;
39016;SDS011;24784;45.582;5.276;2022-12-08T10:10:52;66.00;;;29.85;;
39016;SDS011;24784;45.582;5.276;2022-12-08T10:16:43;64.85;;;29.88;;
39016;SDS011;24784;45.582;5.276;2022-12-08T10:19:17;70.03;;;30.38;;
39016;SDS011;24784;45.582;5.276;2022-12-08T10:21:47;64.90;;;30.27;;
39016;SDS011;24784;45.582;5.276;2022-12-08T10:26:43;72.93;;;32.78;;
39016;SDS011;24784;45.582;5.276;2022-12-08T10:29:14;67.97;;;30.55;;
39016;SDS011;24784;45.582;5.276;2022-12-08T10:31:40;67.72;;;30.77;;
39016;SDS011;24784;45.582;5.276;2022-12-08T10:34:13;67.03;;;32.38;;
39016;SDS011;24784;45.582;5.276;2022-12-08T10:39:30;64.45;;;31.45;;
39016;SDS011;24784;45.582;5.276;2022-12-08T10:47:22;73.05;;;31.65;;
39016;SDS011;24784;45.582;5.276;2022-12-08T10:52:53;74.78;;;31.73;;
39016;SDS011;24784;45.582;5.276;2022-12-08T10:55:38;66.53;;;31.80;;
39016;SDS011;24784;45.582;5.276;2022-12-08T10:58:22;75.90;;;32.55;;
39016;SDS011;24784;45.582;5.276;2022-12-08T11:00:49;67.88;;;32.47;;
39016;SDS011;24784;45.582;5.276;2022-12-08T11:03:25;70.78;;;30.73;;
39016;SDS011;24784;45.582;5.276;2022-12-08T11:06:00;63.90;;;30.03;;
39016;SDS011;24784;45.582;5.276;2022-12-08T11:08:34;72.88;;;31.98;;
39016;SDS011;24784;45.582;5.276;2022-12-08T11:11:17;69.80;;;30.40;;
39016;SDS011;24784;45.582;5.276;2022-12-08T11:13:47;65.65;;;31.35;;
39016;SDS011;24784;45.582;5.276;2022-12-08T11:16:16;67.70;;;32.47;;
39016;SDS011;24784;45.582;5.276;2022-12-08T11:18:54;72.03;;;32.10;;
39016;SDS011;24784;45.582;5.276;2022-12-08T11:21:33;68.38;;;32.60;;
39016;SDS011;24784;45.582;5.276;2022-12-08T11:26:39;67.38;;;32.22;;
39016;SDS011;24784;45.582;5.276;2022-12-08T11:29:17;71.90;;;32.45;;
39016;SDS011;24784;45.582;5.276;2022-12-08T11:31:47;72.10;;;32.03;;
39016;SDS011;24784;45.582;5.276;2022-12-08T11:36:55;64.28;;;30.92;;
39016;SDS011;24784;45.582;5.276;2022-12-08T11:39:25;67.90;;;32.63;;
39016;SDS011;24784;45.582;5.276;2022-12-08T11:41:56;64.00;;;32.00;;
39016;SDS011;24784;45.582;5.276;2022-12-08T11:44:32;69.88;;;31.90;;
39016;SDS011;24784;45.582;5.276;2022-12-08T11:50:34;70.72;;;32.28;;
39016;SDS011;24784;45.582;5.276;2022-12-08T11:56:05;61.88;;;30.33;;
39016;SDS011;24784;45.582;5.276;2022-12-08T11:58:42;67.40;;;32.85;;
39016;SDS011;24784;45.582;5.276;2022-12-08T12:01:17;70.88;;;32.05;;
39016;SDS011;24784;45.582;5.276;2022-12-08T12:03:52;59.55;;;30.52;;
39016;SDS011;24784;45.582;5.276;2022-12-08T12:06:49;71.90;;;33.35;;
39016;SDS011;24784;45.582;5.276;2022-12-08T12:18:24;73.18;;;31.63;;
39016;SDS011;24784;45.582;5.276;2022-12-08T12:21:21;60.90;;;29.48;;
39016;SDS011;24784;45.582;5.276;2022-12-08T12:24:26;67.85;;;31.80;;
39016;SDS011;24784;45.582;5.276;2022-12-08T12:29:30;64.88;;;31.20;;
39016;SDS011;24784;45.582;5.276;2022-12-08T12:32:05;65.95;;;31.10;;
39016;SDS011;24784;45.582;5.276;2022-12-08T12:50:47;55.55;;;29.50;;
39016;SDS011;24784;45.582;5.276;2022-12-08T14:10:49;44.05;;;23.17;;
39016;SDS011;24784;45.582;5.276;2022-12-08T14:21:35;48.95;;;25.77;;
39016;SDS011;24784;45.582;5.276;2022-12-08T14:24:01;50.58;;;25.33;;
39016;SDS011;24784;45.582;5.276;2022-12-08T14:26:35;48.13;;;24.08;;
39016;SDS011;24784;45.582;5.276;2022-12-08T14:29:06;52.63;;;25.55;;
39016;SDS011;24784;45.582;5.276;2022-12-08T14:31:35;51.05;;;24.95;;
39016;SDS011;24784;45.582;5.276;2022-12-08T14:34:00;50.05;;;26.42;;
39016;SDS011;24784;45.582;5.276;2022-12-08T14:44:54;48.90;;;26.42;;
39016;SDS011;24784;45.582;5.276;2022-12-08T14:53:27;51.47;;;25.85;;
39016;SDS011;24784;45.582;5.276;2022-12-08T15:02:18;47.70;;;26.17;;
39016;SDS011;24784;45.582;5.276;2022-12-08T16:57:44;49.88;;;25.17;;
